Hancock, MI (49930)

5:23 AM EDT on August 24, 2016 (GMT -0400)
Forsman Road | | Change Station

Elev 1116 ft 47.15 °N, 88.52 °W | Updated 5 seconds ago

Clear
Clear
63.2 °F
Feels Like 63.2 °F
N
0.0
Wind Variable Wind from South
Gusts 0.0 mph

Today
High -- | Low -- °F
--% Chance of Precip.
Yesterday
High -- | Low -- °F
Precip. -- in
Pressure 29.87 in
Visibility 10.0 miles
Clouds Clear
Dew Point 62 °F
Humidity 97%
Rainfall 0.00 in
Snow Depth Not available.
7:03 AM 8:48 PM
Waning Gibbous, 59% visible
METAR KCMX 240853Z AUTO 15004KT 10SM CLR 18/16 A2989 RMK AO2 SLP115 T01830161 58007 TSNO
Pressure 29.87 in
Visibility 10.0 miles
Clouds Clear
Dew Point 62 °F
Humidity 97%
Rainfall 0.00 in
Snow Depth Not available.
7:03 AM 8:48 PM
Waning Gibbous, 59% visible
METAR KCMX 240853Z AUTO 15004KT 10SM CLR 18/16 A2989 RMK AO2 SLP115 T01830161 58007 TSNO

10-Day Weather Forecast

Almanac

Astronomy

Aug. 24, 2016 Rise Set
Actual Time
Civil Twilight
Nautical Twilight
Astronomical Twilight
Moon
Length of Visible Light
Length of Day
Tomorrow will be .
, % of the Moon is Illuminated

Today's Extremes

State Highs State Lows

Community

WunderPhotos

Upload Photos

1,934,560 photos uploaded!

WunderBlog® & News

Nearby

Air Quality

  Air Quality AQ Index Pollutant
Not available.

Snow Depth

Station Depth Elevation

Earthquake Activity

City Distance Mag. Time & Date
Minimum magnitude displayed is 2.5.

Coastal Water Temperatures

Place Temperature

Stations

Nearby Weather Stations

Station Location Temp. Windchill Dew Point Humidity Wind Precip. Elev Updated Type
                   

Watches & Warnings

There are currently no watches in effect.